Time;durP1;ratioP1;P1;durP2;ratioP2;P2;SDS_P1;SDS_P2;PMS_P1;PMS_P2;Temp;Humidity;BMP_temperature;BMP_pressure;BME280_temperature;BME280_humidity;BME280_pressure;Samples;Min_cycle;Max_cycle;Signal;HPM_P1;HPM_P2
2021/11/26 00:01:19;;;;;;;42.67;24.35;;;3.90;99.90;;;;;;5067227;28;20208;-72
2021/11/26 00:04:07;;;;;;;42.70;25.00;;;3.90;99.90;;;;;;5070051;28;20207;-73
2021/11/26 00:06:54;;;;;;;45.88;23.90;;;4.10;99.90;;;;;;5071746;28;20220;-74
2021/11/26 00:09:39;;;;;;;38.95;23.88;;;4.00;99.90;;;;;;5073119;28;20314;-73
2021/11/26 00:12:25;;;;;;;44.28;24.13;;;4.00;99.90;;;;;;5073626;28;20216;-73
2021/11/26 00:15:18;;;;;;;40.50;23.92;;;4.00;99.90;;;;;;5074419;28;20720;-73
2021/11/26 00:18:07;;;;;;;41.88;23.40;;;3.90;99.90;;;;;;5074757;28;20705;-73
2021/11/26 00:20:55;;;;;;;47.92;25.85;;;3.80;99.90;;;;;;5067072;28;20204;-73
2021/11/26 00:23:42;;;;;;;43.85;24.30;;;3.70;99.90;;;;;;5072018;28;20212;-73
2021/11/26 00:26:28;;;;;;;43.08;24.80;;;3.60;99.90;;;;;;5072622;28;20688;-73
2021/11/26 00:29:14;;;;;;;38.25;22.40;;;3.50;99.90;;;;;;5067715;28;20680;-72
2021/11/26 00:32:00;;;;;;;49.72;24.95;;;3.50;99.90;;;;;;5071644;28;20308;-72
2021/11/26 00:34:46;;;;;;;42.88;22.75;;;3.60;99.90;;;;;;5073414;28;20231;-73
2021/11/26 00:37:32;;;;;;;48.08;25.48;;;3.50;99.90;;;;;;5073184;28;20390;-73
2021/11/26 00:40:19;;;;;;;42.45;23.65;;;3.30;99.90;;;;;;5071320;28;20204;-73
2021/11/26 00:43:04;;;;;;;45.08;26.13;;;3.20;99.90;;;;;;5073148;28;20204;-73
2021/11/26 00:45:50;;;;;;;44.60;24.25;;;3.30;99.90;;;;;;5064173;28;20227;-73
2021/11/26 00:48:36;;;;;;;47.25;23.45;;;3.50;99.90;;;;;;5072449;28;20199;-73
2021/11/26 00:51:21;;;;;;;41.03;23.55;;;3.60;99.90;;;;;;5073227;28;20204;-73
2021/11/26 00:54:07;;;;;;;45.00;24.60;;;3.70;99.90;;;;;;5070270;28;20703;-73
2021/11/26 00:56:54;;;;;;;43.53;24.75;;;3.80;99.90;;;;;;5073758;28;20208;-74
2021/11/26 00:59:40;;;;;;;41.22;24.05;;;3.90;99.90;;;;;;5069317;28;20232;-73
2021/11/26 01:02:26;;;;;;;38.13;25.23;;;3.90;99.90;;;;;;5065397;28;20289;-73
2021/11/26 01:05:13;;;;;;;47.40;24.50;;;3.90;99.90;;;;;;5070982;28;20607;-73
2021/11/26 01:07:58;;;;;;;43.03;23.52;;;4.00;99.90;;;;;;5070272;28;20196;-73
2021/11/26 01:10:45;;;;;;;44.08;23.05;;;4.10;99.90;;;;;;5073826;28;20688;-73
2021/11/26 01:13:31;;;;;;;38.67;23.95;;;4.10;99.90;;;;;;5070729;28;20216;-73
2021/11/26 01:16:18;;;;;;;40.60;23.17;;;4.20;99.90;;;;;;5069736;28;20219;-72
2021/11/26 01:19:04;;;;;;;36.03;22.70;;;4.20;99.90;;;;;;5061272;28;20226;-72
2021/11/26 01:21:50;;;;;;;42.30;25.17;;;4.10;99.90;;;;;;5068084;28;20200;-73
2021/11/26 01:24:35;;;;;;;43.50;24.20;;;4.00;99.90;;;;;;5070916;28;20274;-73
2021/11/26 01:27:21;;;;;;;44.92;25.02;;;4.00;99.90;;;;;;5061272;28;20204;-73
2021/11/26 01:30:14;;;;;;;52.08;24.98;;;4.00;99.90;;;;;;5077844;28;20199;-73
2021/11/26 01:33:01;;;;;;;43.53;22.13;;;4.10;99.90;;;;;;5074622;28;20693;-73
2021/11/26 01:35:51;;;;;;;46.10;23.85;;;4.10;99.90;;;;;;5068179;28;20267;-73
2021/11/26 01:38:37;;;;;;;42.50;24.05;;;4.10;99.90;;;;;;5066330;28;20580;-73
2021/11/26 01:41:23;;;;;;;43.38;23.38;;;4.10;99.90;;;;;;5073242;28;20204;-73
2021/11/26 01:44:09;;;;;;;40.85;24.33;;;4.10;99.90;;;;;;5070005;28;20719;-73
2021/11/26 01:46:56;;;;;;;41.40;23.10;;;4.10;99.90;;;;;;5076083;28;20271;-73
2021/11/26 01:49:42;;;;;;;44.33;23.45;;;4.10;99.90;;;;;;5071896;28;20268;-73
2021/11/26 01:52:27;;;;;;;43.30;23.17;;;4.20;99.90;;;;;;5062863;28;20324;-73
2021/11/26 01:55:16;;;;;;;42.28;24.52;;;4.20;99.90;;;;;;5068918;28;20232;-73
2021/11/26 01:58:02;;;;;;;43.92;25.67;;;4.20;99.90;;;;;;5070987;28;20703;-73
2021/11/26 02:00:49;;;;;;;45.28;25.15;;;4.10;99.90;;;;;;5072229;28;20693;-73
2021/11/26 02:03:36;;;;;;;44.38;25.65;;;4.20;99.90;;;;;;5064033;28;20199;-72
2021/11/26 02:06:22;;;;;;;48.55;26.13;;;4.10;99.90;;;;;;5065477;28;20262;-72
2021/11/26 02:09:08;;;;;;;45.72;25.33;;;3.90;99.90;;;;;;5071611;28;20736;-73
2021/11/26 02:11:54;;;;;;;43.25;24.75;;;4.00;99.90;;;;;;5071078;28;20204;-73
2021/11/26 02:14:39;;;;;;;40.92;24.40;;;3.90;99.90;;;;;;5088561;22;20282;-73
2021/11/26 02:17:25;;;;;;;47.30;26.00;;;4.00;99.90;;;;;;5079557;28;20207;-73
2021/11/26 02:20:17;;;;;;;43.88;25.35;;;4.10;99.90;;;;;;5082511;28;20576;-73
2021/11/26 02:23:03;;;;;;;46.20;26.45;;;4.20;99.90;;;;;;5087757;28;20209;-73
2021/11/26 02:25:49;;;;;;;42.40;24.55;;;4.20;99.90;;;;;;5087680;28;20309;-73
2021/11/26 02:28:35;;;;;;;45.03;25.92;;;4.30;99.90;;;;;;5091161;28;20577;-73
2021/11/26 02:31:20;;;;;;;45.67;26.30;;;4.20;99.90;;;;;;5078822;28;20204;-73
2021/11/26 02:34:06;;;;;;;44.88;24.70;;;4.20;99.90;;;;;;5088540;28;20719;-73
2021/11/26 02:36:53;;;;;;;46.28;25.85;;;4.30;99.90;;;;;;5088704;28;20326;-73
2021/11/26 02:39:39;;;;;;;49.15;28.58;;;4.30;99.90;;;;;;5089573;28;20231;-73
2021/11/26 02:42:25;;;;;;;47.33;25.45;;;4.30;99.90;;;;;;5084123;28;20293;-73
2021/11/26 02:45:13;;;;;;;46.97;26.52;;;4.30;99.90;;;;;;5083204;28;20597;-73
2021/11/26 02:47:59;;;;;;;41.45;23.92;;;4.20;99.90;;;;;;5086315;28;20211;-73
2021/11/26 02:50:46;;;;;;;42.60;24.80;;;4.10;99.90;;;;;;5083745;28;20211;-73
2021/11/26 02:53:34;;;;;;;38.53;24.52;;;4.00;99.90;;;;;;5085462;28;20695;-73
2021/11/26 02:56:19;;;;;;;46.85;24.30;;;3.90;99.90;;;;;;5086067;28;20618;-73
2021/11/26 02:59:05;;;;;;;40.88;23.67;;;3.90;99.90;;;;;;5081626;28;20226;-73
2021/11/26 03:01:51;;;;;;;44.00;25.40;;;3.70;99.90;;;;;;5077811;28;20246;-73
2021/11/26 03:04:37;;;;;;;45.65;24.92;;;3.60;99.90;;;;;;5079986;28;20598;-73
2021/11/26 03:07:22;;;;;;;43.78;23.98;;;3.50;99.90;;;;;;5083004;28;20352;-73
2021/11/26 03:10:13;;;;;;;39.85;24.77;;;3.60;99.90;;;;;;5078920;28;20195;-73
2021/11/26 03:13:01;;;;;;;42.95;25.55;;;3.40;99.90;;;;;;5084493;28;20460;-73
2021/11/26 03:15:47;;;;;;;39.85;25.48;;;3.50;99.90;;;;;;5077024;28;20282;-73
2021/11/26 03:18:33;;;;;;;43.92;24.35;;;3.30;99.90;;;;;;5078644;28;20220;-73
2021/11/26 03:21:19;;;;;;;40.90;22.55;;;3.30;99.90;;;;;;5081765;28;20712;-73
2021/11/26 03:24:04;;;;;;;38.97;23.15;;;3.30;99.90;;;;;;5083460;28;20198;-73
2021/11/26 03:26:51;;;;;;;46.60;25.77;;;3.40;99.90;;;;;;5081212;28;20199;-73
2021/11/26 03:29:37;;;;;;;46.92;25.55;;;3.50;99.90;;;;;;5081114;28;20329;-73
2021/11/26 03:32:23;;;;;;;44.25;25.00;;;3.60;99.90;;;;;;5079410;28;20199;-73
2021/11/26 03:35:09;;;;;;;44.95;24.95;;;3.70;99.90;;;;;;5080300;28;20223;-73
2021/11/26 03:37:55;;;;;;;44.95;25.23;;;3.80;99.90;;;;;;5086386;28;20730;-73
2021/11/26 03:40:42;;;;;;;50.17;25.63;;;3.70;99.90;;;;;;5085018;28;20231;-73
2021/11/26 03:43:29;;;;;;;40.25;23.77;;;3.60;99.90;;;;;;5085105;28;20563;-73
2021/11/26 03:46:16;;;;;;;41.05;23.10;;;3.60;99.90;;;;;;5087161;28;20223;-73
2021/11/26 03:49:02;;;;;;;48.97;25.67;;;3.60;99.90;;;;;;5083000;28;20207;-73
2021/11/26 03:51:47;;;;;;;45.60;27.55;;;3.60;99.90;;;;;;5082533;28;20207;-73
2021/11/26 03:54:34;;;;;;;43.38;25.23;;;3.60;99.90;;;;;;5088750;28;20219;-73
2021/11/26 03:57:19;;;;;;;41.00;25.33;;;3.70;99.90;;;;;;5081856;28;20714;-73
2021/11/26 04:00:09;;;;;;;41.15;23.92;;;3.80;99.90;;;;;;5088581;28;20226;-73
2021/11/26 04:02:55;;;;;;;38.20;22.73;;;3.90;99.90;;;;;;5078127;28;20677;-73
2021/11/26 04:05:40;;;;;;;40.42;23.35;;;3.90;99.90;;;;;;5081206;28;20460;-73
2021/11/26 04:08:26;;;;;;;42.97;25.48;;;4.00;99.90;;;;;;5083073;28;20612;-73
2021/11/26 04:11:12;;;;;;;38.30;22.02;;;4.00;99.90;;;;;;5080983;28;20322;-73
2021/11/26 04:13:57;;;;;;;42.20;24.05;;;4.00;99.90;;;;;;5081204;28;20326;-73
2021/11/26 04:16:46;;;;;;;46.90;24.67;;;4.00;99.90;;;;;;5080132;28;20262;-73
2021/11/26 04:19:31;;;;;;;48.78;24.63;;;4.10;99.90;;;;;;5088065;28;20571;-73
2021/11/26 04:22:17;;;;;;;48.20;24.88;;;4.00;99.90;;;;;;5086736;28;20204;-73
2021/11/26 04:25:03;;;;;;;47.00;25.15;;;4.10;99.90;;;;;;5080784;28;20229;-73
2021/11/26 04:27:50;;;;;;;41.92;24.40;;;4.00;99.90;;;;;;5091971;28;20283;-73
2021/11/26 04:30:36;;;;;;;39.65;22.50;;;3.90;99.90;;;;;;5085310;28;20199;-73
2021/11/26 04:33:22;;;;;;;51.42;26.50;;;4.00;99.90;;;;;;5082646;28;20195;-73
2021/11/26 04:36:08;;;;;;;37.88;23.58;;;4.00;99.90;;;;;;5091481;28;20218;-73
2021/11/26 04:38:54;;;;;;;42.67;24.15;;;3.90;99.90;;;;;;5085874;28;20197;-73
2021/11/26 04:41:39;;;;;;;42.20;24.73;;;4.00;99.90;;;;;;5083790;28;20203;-73
2021/11/26 04:44:25;;;;;;;39.70;23.70;;;3.90;99.90;;;;;;5091742;28;20681;-73
2021/11/26 04:47:11;;;;;;;39.80;23.00;;;3.90;99.90;;;;;;5088099;28;20775;-73
2021/11/26 04:49:58;;;;;;;36.55;22.30;;;3.90;99.90;;;;;;5092989;28;20238;-73
2021/11/26 04:52:43;;;;;;;41.88;24.13;;;3.90;99.90;;;;;;5086641;28;20230;-73
2021/11/26 04:55:29;;;;;;;38.03;23.38;;;4.00;99.90;;;;;;5092885;28;20223;-73
2021/11/26 04:58:15;;;;;;;36.85;21.95;;;4.00;99.90;;;;;;5090738;28;20203;-73
2021/11/26 05:01:01;;;;;;;40.45;22.70;;;4.00;99.90;;;;;;5085178;28;20265;-73
2021/11/26 05:03:46;;;;;;;34.90;21.00;;;4.00;99.90;;;;;;5080033;28;20204;-73
2021/11/26 05:06:36;;;;;;;40.00;22.30;;;4.00;99.90;;;;;;5091614;28;20227;-73
2021/11/26 05:09:22;;;;;;;39.53;22.38;;;3.90;99.90;;;;;;5086989;28;20203;-73
2021/11/26 05:12:09;;;;;;;42.13;23.17;;;4.00;99.90;;;;;;5092900;28;20422;-73
2021/11/26 05:14:55;;;;;;;38.83;21.27;;;4.00;99.90;;;;;;5086305;28;20235;-73
2021/11/26 05:17:41;;;;;;;32.58;20.38;;;4.10;99.90;;;;;;5086895;28;20207;-73
2021/11/26 05:20:27;;;;;;;39.53;23.48;;;4.10;99.90;;;;;;5088555;28;20216;-73
2021/11/26 05:23:14;;;;;;;35.53;21.77;;;4.10;99.90;;;;;;5082560;28;20204;-73
2021/11/26 05:26:00;;;;;;;38.88;21.13;;;4.10;99.90;;;;;;5090511;28;20590;-73
2021/11/26 05:28:46;;;;;;;37.53;21.50;;;4.20;99.90;;;;;;5085699;28;20211;-73
2021/11/26 05:31:36;;;;;;;38.05;20.77;;;4.20;99.90;;;;;;5082419;28;20202;-73
2021/11/26 05:34:21;;;;;;;36.25;21.33;;;4.30;99.90;;;;;;5088709;28;20201;-73
2021/11/26 05:37:07;;;;;;;36.00;21.02;;;4.10;99.90;;;;;;5076972;28;20208;-73
2021/11/26 05:39:54;;;;;;;37.92;21.75;;;4.10;99.90;;;;;;5081010;28;20215;-73
2021/11/26 05:42:41;;;;;;;36.42;20.60;;;4.20;99.90;;;;;;5087645;28;20281;-73
2021/11/26 05:45:27;;;;;;;33.42;19.20;;;4.20;99.90;;;;;;5084134;28;20716;-73
2021/11/26 05:48:13;;;;;;;35.35;20.42;;;4.20;99.90;;;;;;5084987;28;20195;-73
2021/11/26 05:50:59;;;;;;;39.17;21.88;;;4.20;99.90;;;;;;5090063;28;20289;-73
2021/11/26 05:53:45;;;;;;;31.10;18.50;;;4.00;99.90;;;;;;5092104;28;20317;-73
2021/11/26 05:56:32;;;;;;;31.67;18.67;;;4.00;99.90;;;;;;5085522;28;20715;-73
2021/11/26 05:59:18;;;;;;;33.85;20.15;;;4.00;99.90;;;;;;5077852;28;20215;-73
2021/11/26 06:02:04;;;;;;;27.55;17.50;;;3.90;99.90;;;;;;5089651;28;20203;-73
2021/11/26 06:04:50;;;;;;;35.25;19.08;;;3.80;99.90;;;;;;5090675;28;20231;-73
2021/11/26 06:07:35;;;;;;;34.65;17.55;;;3.80;99.90;;;;;;5081824;28;20254;-73
2021/11/26 06:10:22;;;;;;;29.60;17.98;;;3.70;99.90;;;;;;5088848;28;20196;-74
2021/11/26 06:13:09;;;;;;;33.88;18.92;;;3.70;99.90;;;;;;5082097;28;20212;-74
2021/11/26 06:15:55;;;;;;;43.00;18.10;;;3.70;99.90;;;;;;5074430;28;20231;-74
2021/11/26 06:18:40;;;;;;;30.48;17.48;;;3.70;99.90;;;;;;5084581;28;20207;-73
2021/11/26 06:21:26;;;;;;;27.88;16.80;;;3.80;99.90;;;;;;5082292;28;20461;-74
2021/11/26 06:24:11;;;;;;;29.13;18.20;;;3.80;99.90;;;;;;5082911;28;20208;-74
2021/11/26 06:26:57;;;;;;;29.45;17.75;;;4.00;99.90;;;;;;5077370;28;20204;-74
2021/11/26 06:29:44;;;;;;;26.63;17.02;;;4.00;99.90;;;;;;5081309;28;20669;-74
2021/11/26 06:32:30;;;;;;;25.33;16.00;;;4.10;99.90;;;;;;5088505;28;20212;-74
2021/11/26 06:35:19;;;;;;;30.80;17.98;;;4.10;99.90;;;;;;5082112;28;20223;-74
2021/11/26 06:38:05;;;;;;;31.70;18.15;;;4.10;99.90;;;;;;5083401;28;20250;-74
2021/11/26 06:40:51;;;;;;;28.25;18.05;;;4.20;99.90;;;;;;5088018;28;20462;-74
2021/11/26 06:43:36;;;;;;;27.70;17.67;;;4.10;99.90;;;;;;5089728;28;20246;-74
2021/11/26 06:46:25;;;;;;;30.83;19.83;;;4.10;99.90;;;;;;5083706;28;20258;-74
2021/11/26 06:49:11;;;;;;;28.08;17.17;;;4.10;99.90;;;;;;5088554;28;20208;-74
2021/11/26 06:51:57;;;;;;;25.67;16.13;;;4.00;99.90;;;;;;5084363;28;20672;-74
2021/11/26 06:54:42;;;;;;;26.15;18.40;;;3.80;99.90;;;;;;5081133;28;20231;-74
2021/11/26 06:57:28;;;;;;;33.92;19.05;;;3.70;99.90;;;;;;5083095;28;20200;-74
2021/11/26 07:00:16;;;;;;;33.63;18.42;;;3.60;99.90;;;;;;5085625;28;20223;-74
2021/11/26 07:03:04;;;;;;;28.58;16.83;;;3.50;99.90;;;;;;5086361;28;20292;-74
2021/11/26 07:05:50;;;;;;;26.13;16.05;;;3.50;99.90;;;;;;5078114;28;20363;-74
2021/11/26 07:08:35;;;;;;;26.73;17.92;;;3.40;99.90;;;;;;5089707;28;20341;-74
2021/11/26 07:11:21;;;;;;;24.27;16.15;;;3.50;99.90;;;;;;5086074;28;20199;-73
2021/11/26 07:14:07;;;;;;;27.10;16.83;;;3.60;99.90;;;;;;5075715;28;20673;-74
2021/11/26 07:16:52;;;;;;;27.33;17.02;;;3.70;99.90;;;;;;5082350;28;20377;-74
2021/11/26 07:19:40;;;;;;;33.35;18.17;;;3.60;99.90;;;;;;5076148;28;20311;-73
2021/11/26 07:22:26;;;;;;;32.08;17.88;;;3.70;99.90;;;;;;5081438;28;20696;-74
2021/11/26 07:25:12;;;;;;;29.30;18.52;;;3.70;99.90;;;;;;5084628;28;20222;-74
2021/11/26 07:27:58;;;;;;;32.95;20.92;;;3.70;99.90;;;;;;5081094;28;20223;-74
2021/11/26 07:30:44;;;;;;;37.20;21.52;;;3.70;99.90;;;;;;5078925;28;20210;-74
2021/11/26 07:33:29;;;;;;;31.10;19.08;;;3.70;99.90;;;;;;5077205;28;20215;-73
2021/11/26 07:36:17;;;;;;;30.25;18.95;;;3.70;99.90;;;;;;5078293;28;20637;-74
2021/11/26 07:39:03;;;;;;;30.15;19.33;;;3.70;99.90;;;;;;5080379;28;20280;-74
2021/11/26 07:41:48;;;;;;;31.73;20.48;;;3.70;99.90;;;;;;5082010;28;20222;-74
2021/11/26 07:44:35;;;;;;;32.20;19.67;;;3.80;99.90;;;;;;5087787;28;20220;-74
2021/11/26 07:47:21;;;;;;;37.38;19.48;;;3.80;99.90;;;;;;5082971;28;20580;-74
2021/11/26 07:50:08;;;;;;;33.83;21.35;;;3.90;99.90;;;;;;5084233;28;20610;-73
2021/11/26 07:52:55;;;;;;;35.58;19.73;;;3.90;99.90;;;;;;5080316;28;20204;-74
2021/11/26 07:55:41;;;;;;;32.40;18.77;;;3.90;99.90;;;;;;5083887;28;20247;-73
2021/11/26 07:58:27;;;;;;;31.27;18.17;;;4.10;99.90;;;;;;5074356;28;20218;-73
2021/11/26 08:01:13;;;;;;;29.08;18.35;;;4.20;99.90;;;;;;5083825;28;20235;-73
2021/11/26 08:03:59;;;;;;;29.80;18.40;;;4.10;99.90;;;;;;5084309;28;20574;-73
2021/11/26 08:06:46;;;;;;;25.90;17.40;;;4.20;99.90;;;;;;5085652;28;20243;-73
2021/11/26 08:09:32;;;;;;;30.25;18.00;;;4.20;99.90;;;;;;5091515;28;20200;-73
2021/11/26 08:12:19;;;;;;;25.05;15.45;;;4.20;99.90;;;;;;5085823;28;20561;-73
2021/11/26 08:15:06;;;;;;;23.23;16.15;;;4.30;99.90;;;;;;5084862;28;20250;-73
2021/11/26 08:17:52;;;;;;;27.73;15.93;;;4.30;99.90;;;;;;5092019;28;20258;-73
2021/11/26 08:20:37;;;;;;;24.70;15.63;;;4.20;99.90;;;;;;5087204;28;20227;-74
2021/11/26 08:23:23;;;;;;;33.45;16.63;;;4.20;99.90;;;;;;5088228;28;20208;-73
2021/11/26 08:26:10;;;;;;;33.22;15.70;;;4.20;99.90;;;;;;5088751;28;20766;-73
2021/11/26 08:28:57;;;;;;;25.75;16.05;;;4.20;99.90;;;;;;5085462;28;20280;-73
2021/11/26 08:31:42;;;;;;;27.25;16.70;;;4.20;99.90;;;;;;5083363;28;20249;-73
2021/11/26 08:34:28;;;;;;;25.48;15.50;;;4.30;99.90;;;;;;5085108;28;20195;-73
2021/11/26 08:37:14;;;;;;;30.48;17.20;;;4.40;99.90;;;;;;5087371;28;20199;-73
2021/11/26 08:40:02;;;;;;;32.13;16.80;;;4.40;99.90;;;;;;5084671;28;20199;-73
2021/11/26 08:42:49;;;;;;;36.88;17.02;;;4.50;99.90;;;;;;5081004;28;20200;-73
2021/11/26 08:45:35;;;;;;;31.85;16.20;;;4.50;99.90;;;;;;5091251;28;20220;-73
2021/11/26 08:48:20;;;;;;;30.05;17.25;;;4.50;99.90;;;;;;5084294;28;20689;-73
2021/11/26 08:51:07;;;;;;;28.67;17.85;;;4.50;99.90;;;;;;5091344;28;20699;-74
2021/11/26 08:53:54;;;;;;;28.00;16.30;;;4.50;99.90;;;;;;5087623;28;20207;-73
2021/11/26 08:56:41;;;;;;;29.33;17.23;;;4.50;99.90;;;;;;5079118;28;20200;-74
2021/11/26 08:59:28;;;;;;;29.27;18.60;;;4.50;99.90;;;;;;5091479;28;20200;-73
2021/11/26 09:02:14;;;;;;;29.08;17.35;;;4.60;99.90;;;;;;5080466;28;20365;-73
2021/11/26 09:05:00;;;;;;;31.23;17.58;;;4.70;99.90;;;;;;5085010;28;20223;-74
2021/11/26 09:07:47;;;;;;;29.23;19.38;;;4.80;99.90;;;;;;5081386;28;20256;-73
2021/11/26 09:10:35;;;;;;;26.42;17.73;;;4.80;99.90;;;;;;5085342;28;20346;-73
2021/11/26 09:13:21;;;;;;;31.73;19.02;;;4.80;99.90;;;;;;5085754;28;24285;-73
2021/11/26 09:16:08;;;;;;;30.95;19.20;;;4.70;99.90;;;;;;5084133;28;20235;-73
2021/11/26 09:18:54;;;;;;;30.80;19.00;;;4.60;99.90;;;;;;5082636;28;20222;-74
2021/11/26 09:21:40;;;;;;;29.50;17.45;;;4.50;99.90;;;;;;5088566;28;20305;-73
2021/11/26 09:24:26;;;;;;;28.50;17.17;;;4.50;99.90;;;;;;5075320;28;20203;-73
2021/11/26 09:27:11;;;;;;;30.88;17.52;;;4.60;99.90;;;;;;5088068;28;20210;-73
2021/11/26 09:29:57;;;;;;;27.30;15.82;;;4.70;99.90;;;;;;5084728;28;20328;-73
2021/11/26 09:32:44;;;;;;;25.67;15.68;;;4.40;99.90;;;;;;5078396;28;20208;-73
2021/11/26 09:35:31;;;;;;;27.98;17.08;;;4.60;99.90;;;;;;5088923;28;20297;-73
2021/11/26 09:38:16;;;;;;;28.85;16.77;;;4.70;99.90;;;;;;5086659;28;20210;-72
2021/11/26 09:41:04;;;;;;;26.73;17.48;;;4.80;99.90;;;;;;5084799;28;20226;-73
2021/11/26 09:43:50;;;;;;;28.60;18.58;;;4.80;99.90;;;;;;5082965;28;20219;-74
2021/11/26 09:46:38;;;;;;;30.58;18.42;;;4.80;99.90;;;;;;5081880;28;20226;-73
2021/11/26 09:49:25;;;;;;;26.08;18.10;;;4.80;99.90;;;;;;5082872;28;20319;-73
2021/11/26 09:52:10;;;;;;;29.42;18.00;;;4.80;99.90;;;;;;5082294;28;20299;-73
2021/11/26 09:54:56;;;;;;;29.65;17.13;;;4.90;99.90;;;;;;5081638;28;20301;-73
2021/11/26 09:57:42;;;;;;;32.85;17.35;;;4.80;99.90;;;;;;5080092;28;20199;-74
2021/11/26 10:00:28;;;;;;;28.05;17.48;;;4.70;99.90;;;;;;5083037;28;20609;-74
2021/11/26 10:03:13;;;;;;;34.20;19.30;;;4.70;99.90;;;;;;5085921;28;20318;-73
2021/11/26 10:06:00;;;;;;;31.90;18.42;;;4.80;99.90;;;;;;5079929;28;20350;-73
2021/11/26 10:08:59;;;;;;;30.35;18.77;;;4.80;99.90;;;;;;5086178;28;20576;-74
2021/11/26 10:11:47;;;;;;;33.35;18.42;;;4.80;99.90;;;;;;5078376;28;20237;-73
2021/11/26 10:14:34;;;;;;;36.60;19.88;;;4.80;99.90;;;;;;5083415;28;20224;-73
2021/11/26 10:17:23;;;;;;;37.88;20.98;;;4.90;99.90;;;;;;5080388;28;20204;-73
2021/11/26 10:20:11;;;;;;;37.80;19.48;;;4.90;99.90;;;;;;5078657;28;20700;-73
2021/11/26 10:22:58;;;;;;;30.38;19.73;;;5.00;99.90;;;;;;5080920;28;20204;-73
2021/11/26 10:25:44;;;;;;;32.22;19.63;;;5.10;99.90;;;;;;5081856;28;20223;-73
2021/11/26 10:28:38;;;;;;;32.72;20.25;;;5.10;99.90;;;;;;5077872;28;20212;-73
2021/11/26 10:31:26;;;;;;;35.85;21.45;;;5.00;99.90;;;;;;5069147;28;20333;-73
2021/11/26 10:34:12;;;;;;;36.30;20.75;;;5.00;99.90;;;;;;5082693;28;20220;-73
2021/11/26 10:36:58;;;;;;;36.75;22.25;;;4.90;99.90;;;;;;5082452;28;20202;-73
2021/11/26 10:39:45;;;;;;;37.00;21.27;;;4.80;99.90;;;;;;5086976;28;20338;-72
2021/11/26 10:42:32;;;;;;;35.95;22.52;;;4.70;99.90;;;;;;5079841;28;20247;-71
2021/11/26 10:45:32;;;;;;;37.63;22.10;;;4.80;99.90;;;;;;5087834;28;20233;-73
2021/11/26 10:48:48;;;;;;;39.25;23.02;;;4.90;99.90;;;;;;5083675;28;20645;-74
2021/11/26 10:52:15;;;;;;;35.75;21.52;;;4.90;99.90;;;;;;5077198;28;20224;-73
2021/11/26 10:58:33;;;;;;;36.28;21.98;;;5.00;99.90;;;;;;5087212;28;20203;-74
2021/11/26 11:01:20;;;;;;;45.80;23.35;;;5.10;99.90;;;;;;5078457;28;20211;-73
2021/11/26 11:04:14;;;;;;;51.17;23.67;;;5.00;99.90;;;;;;5080538;28;20195;-74
2021/11/26 11:07:03;;;;;;;39.28;24.35;;;4.80;99.90;;;;;;5084680;28;20245;-74
2021/11/26 11:09:53;;;;;;;39.00;21.38;;;4.80;99.90;;;;;;5087861;28;20568;-74
2021/11/26 11:12:40;;;;;;;37.83;21.75;;;4.90;99.90;;;;;;5084229;28;20683;-73
2021/11/26 11:15:26;;;;;;;40.20;24.33;;;4.90;99.90;;;;;;5082339;28;20306;-73
2021/11/26 11:18:13;;;;;;;36.13;21.60;;;4.90;99.90;;;;;;5085505;28;20583;-74
2021/11/26 11:20:59;;;;;;;35.33;22.25;;;5.00;99.90;;;;;;5086757;28;20782;-74
2021/11/26 11:23:44;;;;;;;38.95;21.83;;;5.10;99.90;;;;;;5078819;28;20215;-73
2021/11/26 11:26:30;;;;;;;37.90;22.67;;;5.00;99.90;;;;;;5085142;28;20235;-74
2021/11/26 11:29:20;;;;;;;42.15;25.10;;;5.00;99.90;;;;;;5084418;28;20207;-74
2021/11/26 11:32:06;;;;;;;36.15;22.30;;;5.00;99.90;;;;;;5089986;28;20187;-74
2021/11/26 11:34:52;;;;;;;38.80;23.25;;;5.20;99.90;;;;;;5090000;28;20223;-73
2021/11/26 11:37:38;;;;;;;37.72;21.52;;;5.30;99.90;;;;;;5086070;28;20333;-74
2021/11/26 11:40:29;;;;;;;41.90;24.95;;;5.30;99.90;;;;;;5085360;28;20202;-74
2021/11/26 11:43:18;;;;;;;42.60;24.50;;;5.20;99.90;;;;;;5082108;28;20242;-73
2021/11/26 11:46:07;;;;;;;40.80;23.67;;;5.20;99.90;;;;;;5083559;28;20285;-73
2021/11/26 11:48:55;;;;;;;41.88;25.00;;;5.20;99.90;;;;;;5090994;28;20206;-75
2021/11/26 11:51:48;;;;;;;48.45;23.90;;;5.30;99.90;;;;;;5092953;28;20559;-76
2021/11/26 11:54:38;;;;;;;45.35;24.48;;;5.30;99.90;;;;;;5083959;28;20319;-72
2021/11/26 11:57:25;;;;;;;40.30;23.00;;;5.40;99.90;;;;;;5084761;28;20199;-72
2021/11/26 12:00:16;;;;;;;39.70;25.05;;;5.40;99.90;;;;;;5083468;28;20211;-72
2021/11/26 12:03:10;;;;;;;39.83;24.90;;;5.30;99.90;;;;;;5083795;28;20223;-73
2021/11/26 12:05:57;;;;;;;45.03;25.75;;;5.20;99.90;;;;;;5078219;28;20364;-73
2021/11/26 12:08:52;;;;;;;40.50;25.83;;;5.10;99.90;;;;;;5085569;28;20216;-73
2021/11/26 12:11:40;;;;;;;42.20;25.40;;;5.10;99.90;;;;;;5089388;28;20207;-73
2021/11/26 12:14:25;;;;;;;49.95;27.73;;;5.10;99.90;;;;;;5086620;28;20701;-74
2021/11/26 12:17:15;;;;;;;48.10;26.50;;;5.00;99.90;;;;;;5084231;28;20203;-73
2021/11/26 12:20:10;;;;;;;45.72;25.73;;;4.90;99.90;;;;;;5087286;28;20203;-73
2021/11/26 12:22:59;;;;;;;45.45;26.75;;;4.90;99.90;;;;;;5088845;28;20223;-73
2021/11/26 12:25:53;;;;;;;46.45;27.58;;;4.90;99.90;;;;;;5087887;28;20710;-74
2021/11/26 12:28:41;;;;;;;43.35;24.75;;;4.90;99.90;;;;;;5085243;28;20693;-73
2021/11/26 12:31:32;;;;;;;47.05;27.05;;;4.90;99.90;;;;;;5083112;28;20195;-73
2021/11/26 12:34:21;;;;;;;47.13;27.63;;;4.90;99.90;;;;;;5088130;28;20207;-73
2021/11/26 12:37:18;;;;;;;47.92;25.88;;;5.00;99.90;;;;;;5088941;28;20221;-73
2021/11/26 12:40:08;;;;;;;52.13;26.88;;;5.10;99.90;;;;;;5080833;28;20208;-73
2021/11/26 12:43:02;;;;;;;48.42;27.02;;;4.90;99.90;;;;;;5084002;28;20222;-71
2021/11/26 12:45:47;;;;;;;50.15;28.73;;;4.80;99.90;;;;;;5080174;28;20222;-72
2021/11/26 12:48:39;;;;;;;47.58;27.42;;;4.80;99.90;;;;;;5089014;28;20203;-72
2021/11/26 12:51:33;;;;;;;49.20;27.42;;;4.80;99.90;;;;;;5084902;28;20207;-71
2021/11/26 12:54:26;;;;;;;50.63;27.23;;;4.90;99.90;;;;;;5086033;28;20199;-73
2021/11/26 12:57:21;;;;;;;50.05;27.23;;;4.80;99.90;;;;;;5079843;28;20567;-73
2021/11/26 13:00:09;;;;;;;57.88;31.08;;;4.70;99.90;;;;;;5079878;28;20203;-73
2021/11/26 13:03:05;;;;;;;49.90;29.02;;;4.60;99.90;;;;;;5088836;28;20223;-73
2021/11/26 13:05:55;;;;;;;55.60;30.25;;;4.70;99.90;;;;;;5084642;28;20778;-73
2021/11/26 13:08:41;;;;;;;54.53;29.05;;;4.70;99.90;;;;;;5079074;28;20211;-74
2021/11/26 13:11:28;;;;;;;50.33;26.25;;;4.70;99.90;;;;;;5086128;28;20274;-73
2021/11/26 13:14:14;;;;;;;51.75;27.77;;;4.70;99.90;;;;;;5081898;28;20222;-73
2021/11/26 13:17:00;;;;;;;53.25;28.20;;;4.80;99.90;;;;;;5081225;28;20278;-73
2021/11/26 13:19:59;;;;;;;50.85;29.00;;;4.70;99.90;;;;;;5071375;28;20234;-73
2021/11/26 13:22:47;;;;;;;51.00;28.73;;;4.80;99.90;;;;;;5081673;28;20583;-73
2021/11/26 13:25:36;;;;;;;50.58;29.63;;;4.90;99.90;;;;;;5083259;28;20223;-73
2021/11/26 13:28:25;;;;;;;48.80;26.23;;;4.90;99.90;;;;;;5085361;28;20254;-72
2021/11/26 13:31:13;;;;;;;52.85;26.73;;;4.90;99.90;;;;;;5078964;28;20192;-72
2021/11/26 13:34:00;;;;;;;53.22;28.83;;;4.80;99.90;;;;;;5080650;28;20203;-73
2021/11/26 13:36:46;;;;;;;48.08;28.40;;;4.80;99.90;;;;;;5080620;28;20203;-73
2021/11/26 13:39:32;;;;;;;48.70;28.23;;;4.80;99.90;;;;;;5084504;28;20207;-73
2021/11/26 13:42:18;;;;;;;44.53;25.13;;;4.70;99.90;;;;;;5081698;28;20624;-73
2021/11/26 13:45:06;;;;;;;48.65;25.63;;;4.80;99.90;;;;;;5082815;28;20648;-72
2021/11/26 13:47:53;;;;;;;50.28;28.13;;;4.80;99.90;;;;;;5087621;28;20204;-73
2021/11/26 13:50:39;;;;;;;54.63;27.50;;;4.60;99.90;;;;;;5082481;28;20271;-73
2021/11/26 13:53:25;;;;;;;46.55;25.65;;;4.60;99.90;;;;;;5084702;28;20207;-73
2021/11/26 13:56:11;;;;;;;60.92;26.90;;;4.60;99.90;;;;;;5079039;28;20347;-73
2021/11/26 13:58:59;;;;;;;50.20;24.15;;;4.70;99.90;;;;;;5084103;28;20219;-73
2021/11/26 14:01:47;;;;;;;49.03;25.95;;;4.70;99.90;;;;;;5083845;28;20212;-74
2021/11/26 14:04:32;;;;;;;56.10;27.05;;;4.50;99.90;;;;;;5083119;28;22095;-73
2021/11/26 14:07:21;;;;;;;47.80;24.20;;;4.60;99.90;;;;;;5084618;28;20207;-73
2021/11/26 14:10:09;;;;;;;52.60;26.25;;;4.50;99.90;;;;;;5084667;28;20203;-74
2021/11/26 14:12:58;;;;;;;53.92;27.25;;;4.30;99.90;;;;;;5082292;28;20204;-73
2021/11/26 14:15:44;;;;;;;51.88;27.08;;;4.30;99.90;;;;;;5091133;28;20235;-74
2021/11/26 14:18:31;;;;;;;50.70;27.80;;;4.30;99.90;;;;;;5084521;28;20216;-73
2021/11/26 14:21:17;;;;;;;52.03;27.15;;;4.30;99.90;;;;;;5089291;28;20207;-74